Time;durP1;ratioP1;P1;durP2;ratioP2;P2;SDS_P1;SDS_P2;PMS_P1;PMS_P2;Temp;Humidity;BMP_temperature;BMP_pressure;BME280_temperature;BME280_humidity;BME280_pressure;Samples;Min_cycle;Max_cycle;Signal;HPM_P1;HPM_P2
2021/07/08 00:02:08;;;;;;;18.15;16.25;;;14.80;99.90;;;;;;6094417;23;20018;-44
2021/07/08 00:04:37;;;;;;;18.17;16.45;;;14.80;99.90;;;;;;6119895;23;20026;-49
2021/07/08 00:07:09;;;;;;;18.75;17.08;;;14.80;99.90;;;;;;6130767;23;20096;-45
2021/07/08 00:09:35;;;;;;;;;;;14.70;99.90;;;;;;6131718;23;20026;-47
2021/07/08 00:12:03;;;;;;;16.38;14.98;;;14.60;99.90;;;;;;6130729;23;19952;-46
2021/07/08 00:14:29;;;;;;;16.70;15.20;;;14.60;99.90;;;;;;6094496;23;20014;-45
2021/07/08 00:16:55;;;;;;;16.52;14.93;;;14.60;99.90;;;;;;6131000;23;20032;-49
2021/07/08 00:19:22;;;;;;;17.55;15.95;;;14.60;99.90;;;;;;6120646;23;20452;-48
2021/07/08 00:21:49;;;;;;;17.33;15.73;;;14.60;99.90;;;;;;6120157;23;20111;-45
2021/07/08 00:24:15;;;;;;;18.35;16.67;;;14.60;99.90;;;;;;6120152;23;20025;-47
2021/07/08 00:26:45;;;;;;;16.58;15.23;;;14.60;99.90;;;;;;6120519;23;20028;-46
2021/07/08 00:29:17;;;;;;;16.80;15.20;;;14.60;99.90;;;;;;6131462;23;20018;-44
2021/07/08 00:31:45;;;;;;;16.92;15.20;;;14.50;99.90;;;;;;6130489;23;20447;-50
2021/07/08 00:34:12;;;;;;;17.17;15.73;;;14.50;99.90;;;;;;6095286;23;20329;-50
2021/07/08 00:36:44;;;;;;;16.42;14.95;;;14.50;99.90;;;;;;6120714;23;20018;-48
2021/07/08 00:39:10;;;;;;;15.88;14.32;;;14.50;99.90;;;;;;6120734;23;20592;-47
2021/07/08 00:41:39;;;;;;;17.88;16.27;;;14.50;99.90;;;;;;6130278;23;20022;-44
2021/07/08 00:44:11;;;;;;;16.90;15.40;;;14.40;99.90;;;;;;6120753;23;20219;-48
2021/07/08 00:46:38;;;;;;;15.88;14.57;;;14.40;99.90;;;;;;6120617;23;20022;-47
2021/07/08 00:49:04;;;;;;;15.95;14.60;;;14.40;99.90;;;;;;6120125;23;20108;-48
2021/07/08 00:51:31;;;;;;;17.20;15.57;;;14.40;99.90;;;;;;6113804;23;20018;-46
2021/07/08 00:53:57;;;;;;;17.45;15.98;;;14.40;99.90;;;;;;6120384;23;20305;-44
2021/07/08 00:56:25;;;;;;;17.25;15.65;;;14.40;99.90;;;;;;6130987;23;20021;-48
2021/07/08 00:59:08;;;;;;;17.13;15.63;;;14.40;99.90;;;;;;6120472;23;20026;-48
2021/07/08 01:01:40;;;;;;;17.33;15.63;;;14.40;99.90;;;;;;6094847;23;20025;-47
2021/07/08 01:04:10;;;;;;;19.15;17.35;;;14.40;99.90;;;;;;6119911;23;20034;-48
2021/07/08 01:06:44;;;;;;;18.33;16.63;;;14.30;99.90;;;;;;6120042;23;20498;-45
2021/07/08 01:09:12;;;;;;;16.33;14.82;;;14.30;99.90;;;;;;6120534;23;20018;-46
2021/07/08 01:11:39;;;;;;;16.50;14.95;;;14.20;99.90;;;;;;6094215;23;20080;-45
2021/07/08 01:14:07;;;;;;;17.88;15.98;;;14.30;99.90;;;;;;6119692;23;20026;-46
2021/07/08 01:16:34;;;;;;;17.92;16.23;;;14.20;99.90;;;;;;6120327;23;20018;-45
2021/07/08 01:19:02;;;;;;;16.83;15.32;;;14.30;99.90;;;;;;6130377;23;20047;-46
2021/07/08 01:21:31;;;;;;;16.63;15.00;;;14.20;99.90;;;;;;6119776;23;20491;-48
2021/07/08 01:24:00;;;;;;;16.67;15.13;;;14.20;99.90;;;;;;6094408;23;20062;-48
2021/07/08 01:26:31;;;;;;;17.02;15.38;;;14.20;99.90;;;;;;6119725;23;20046;-47
2021/07/08 01:29:03;;;;;;;17.55;15.73;;;14.20;99.90;;;;;;6130222;23;20024;-47
2021/07/08 01:31:29;;;;;;;16.50;15.07;;;14.30;99.90;;;;;;6119771;23;20088;-48
2021/07/08 01:33:58;;;;;;;16.70;15.05;;;14.20;99.90;;;;;;6128561;23;20412;-47
2021/07/08 01:36:25;;;;;;;17.00;15.40;;;14.30;99.90;;;;;;6120221;23;20025;-47
2021/07/08 01:38:52;;;;;;;16.52;14.93;;;14.20;99.90;;;;;;6129760;23;20029;-49
2021/07/08 01:41:18;;;;;;;15.75;14.38;;;14.20;99.90;;;;;;6120176;23;20018;-46
2021/07/08 01:43:45;;;;;;;15.60;14.10;;;14.10;99.90;;;;;;6120559;23;20018;-47
2021/07/08 01:46:16;;;;;;;15.82;14.32;;;14.10;99.90;;;;;;6120041;23;20022;-51
2021/07/08 01:48:44;;;;;;;16.15;14.75;;;14.10;99.90;;;;;;6119817;23;20121;-47
2021/07/08 01:51:22;;;;;;;16.73;15.10;;;14.10;99.90;;;;;;6119671;23;20388;-49
2021/07/08 01:53:52;;;;;;;17.92;16.10;;;14.00;99.90;;;;;;6119438;23;20021;-47
2021/07/08 01:56:19;;;;;;;18.45;16.65;;;14.00;99.90;;;;;;6118859;23;20494;-49
2021/07/08 01:58:46;;;;;;;17.20;15.70;;;14.00;99.90;;;;;;6119613;23;20026;-49
2021/07/08 02:01:12;;;;;;;20.70;18.67;;;14.00;99.90;;;;;;6093757;23;20049;-47
2021/07/08 02:03:39;;;;;;;21.50;19.40;;;13.90;99.90;;;;;;6119639;23;20045;-49
2021/07/08 02:06:05;;;;;;;22.45;20.35;;;13.90;99.90;;;;;;6119242;23;20108;-46
2021/07/08 02:08:32;;;;;;;20.63;18.80;;;13.90;99.90;;;;;;6129499;23;20456;-46
2021/07/08 02:10:58;;;;;;;21.85;19.85;;;13.80;99.90;;;;;;6119921;23;20052;-50
2021/07/08 02:13:27;;;;;;;25.08;22.52;;;13.80;99.90;;;;;;6129600;23;20101;-46
2021/07/08 02:15:53;;;;;;;23.60;21.60;;;13.80;99.90;;;;;;6129670;23;20400;-49
2021/07/08 02:18:20;;;;;;;23.75;21.50;;;13.90;99.90;;;;;;6119396;23;20022;-46
2021/07/08 02:20:46;;;;;;;22.90;21.00;;;13.80;99.90;;;;;;6118848;23;20029;-47
2021/07/08 02:23:13;;;;;;;24.40;21.90;;;13.80;99.90;;;;;;6119600;23;20617;-48
2021/07/08 02:25:40;;;;;;;24.45;22.25;;;13.80;99.90;;;;;;6119395;23;20391;-51
2021/07/08 02:28:06;;;;;;;24.70;21.85;;;13.80;99.90;;;;;;6120352;23;20045;-46
2021/07/08 02:30:41;;;;;;;21.88;19.60;;;13.80;99.90;;;;;;6119954;23;20022;-46
2021/07/08 02:33:08;;;;;;;20.52;18.63;;;13.70;99.90;;;;;;6119642;23;20021;-46
2021/07/08 02:35:35;;;;;;;20.73;18.75;;;13.80;99.90;;;;;;6092614;23;20029;-45
2021/07/08 02:38:05;;;;;;;22.20;19.88;;;13.70;99.90;;;;;;6130244;23;20024;-47
2021/07/08 02:40:38;;;;;;;21.33;19.33;;;13.70;99.90;;;;;;6120736;23;20018;-49
2021/07/08 02:43:06;;;;;;;20.75;18.88;;;13.70;99.90;;;;;;6120050;23;20031;-47
2021/07/08 02:45:35;;;;;;;19.00;17.17;;;13.70;99.90;;;;;;6119585;23;20014;-44
2021/07/08 02:48:04;;;;;;;21.58;19.58;;;13.60;99.90;;;;;;6119732;23;20022;-48
2021/07/08 02:50:31;;;;;;;21.48;19.38;;;13.60;99.90;;;;;;6128908;23;20022;-47
2021/07/08 02:52:57;;;;;;;22.58;20.42;;;13.60;99.90;;;;;;6120123;23;20014;-47
2021/07/08 02:55:29;;;;;;;22.02;19.90;;;13.60;99.90;;;;;;6119531;23;20029;-46
2021/07/08 02:57:58;;;;;;;20.83;19.02;;;13.60;99.90;;;;;;6093934;23;20026;-46
2021/07/08 03:00:25;;;;;;;21.35;19.35;;;13.50;99.90;;;;;;6119697;23;20022;-46
2021/07/08 03:02:52;;;;;;;21.40;19.45;;;13.60;99.90;;;;;;6119467;23;20535;-49
2021/07/08 03:05:22;;;;;;;20.67;18.70;;;13.60;99.90;;;;;;6119443;23;20026;-48
2021/07/08 03:07:51;;;;;;;20.33;18.52;;;13.50;99.90;;;;;;6093409;23;20014;-48
2021/07/08 03:10:21;;;;;;;20.13;18.25;;;13.50;99.90;;;;;;6129005;23;20096;-49
2021/07/08 03:12:50;;;;;;;19.33;17.55;;;13.50;99.90;;;;;;6119001;23;20028;-48
2021/07/08 03:15:17;;;;;;;20.92;18.95;;;13.40;99.90;;;;;;6118945;23;20040;-55
2021/07/08 03:17:44;;;;;;;20.45;18.45;;;13.50;99.90;;;;;;6118774;23;20436;-47
2021/07/08 03:20:17;;;;;;;20.00;17.98;;;13.50;99.90;;;;;;6119574;23;20022;-47
2021/07/08 03:22:44;;;;;;;20.88;18.70;;;13.40;99.90;;;;;;6119689;23;20045;-45
2021/07/08 03:25:13;;;;;;;19.15;17.35;;;13.40;99.90;;;;;;6118586;23;20029;-47
2021/07/08 03:27:43;;;;;;;19.35;17.45;;;13.40;99.90;;;;;;6118437;23;20746;-46
2021/07/08 03:30:13;;;;;;;18.65;16.85;;;13.40;99.90;;;;;;6129231;23;20724;-47
2021/07/08 03:32:40;;;;;;;18.83;17.05;;;13.30;99.90;;;;;;6093172;23;20026;-48
2021/07/08 03:35:08;;;;;;;18.90;17.17;;;13.30;99.90;;;;;;6118924;23;20026;-46
2021/07/08 03:37:35;;;;;;;17.48;15.82;;;13.30;99.90;;;;;;6119141;23;20029;-46
2021/07/08 03:40:02;;;;;;;20.60;18.00;;;13.20;99.90;;;;;;6119015;23;20024;-47
2021/07/08 03:42:29;;;;;;;20.90;19.00;;;13.20;99.90;;;;;;6118916;23;20120;-45
2021/07/08 03:45:00;;;;;;;19.90;18.10;;;13.20;99.90;;;;;;6129552;23;20494;-55
2021/07/08 03:47:30;;;;;;;19.08;17.33;;;13.20;99.90;;;;;;6119654;23;20086;-47
2021/07/08 03:50:00;;;;;;;19.20;17.23;;;13.20;99.90;;;;;;6118872;23;20645;-45
2021/07/08 03:52:27;;;;;;;18.02;16.27;;;13.20;99.90;;;;;;6118661;23;20458;-46
2021/07/08 03:54:58;;;;;;;17.88;16.35;;;13.10;99.90;;;;;;6119098;23;20088;-46
2021/07/08 03:57:27;;;;;;;17.75;16.17;;;13.20;99.90;;;;;;6092748;23;20042;-48
2021/07/08 03:59:55;;;;;;;18.33;16.42;;;13.20;99.90;;;;;;6093789;23;20034;-49
2021/07/08 04:02:25;;;;;;;16.63;15.13;;;13.20;99.90;;;;;;6119520;23;20105;-46
2021/07/08 04:04:54;;;;;;;18.35;16.65;;;13.20;99.90;;;;;;6119238;23;20030;-49
2021/07/08 04:07:25;;;;;;;19.63;17.02;;;13.30;99.90;;;;;;6118985;23;20025;-46
2021/07/08 04:09:51;;;;;;;18.58;16.90;;;13.30;99.90;;;;;;6129165;23;20101;-48
2021/07/08 04:12:22;;;;;;;19.63;17.70;;;13.30;99.90;;;;;;6120642;23;20018;-45
2021/07/08 04:14:51;;;;;;;20.20;18.20;;;13.40;99.90;;;;;;6121561;23;20077;-48
2021/07/08 04:17:18;;;;;;;20.10;18.15;;;13.40;99.90;;;;;;6120627;23;20268;-45
2021/07/08 04:19:49;;;;;;;16.75;15.15;;;13.50;99.90;;;;;;6120876;23;20029;-49
2021/07/08 04:22:18;;;;;;;15.10;13.60;;;13.50;99.90;;;;;;6121118;23;20026;-49
2021/07/08 04:24:44;;;;;;;14.13;12.77;;;13.50;99.90;;;;;;6120475;23;20463;-48
2021/07/08 04:27:12;;;;;;;15.98;14.50;;;13.50;99.90;;;;;;6131250;23;20018;-49
2021/07/08 04:29:39;;;;;;;16.42;14.90;;;13.50;99.90;;;;;;6121206;23;20017;-46
2021/07/08 04:32:14;;;;;;;;;;;13.60;99.90;;;;;;6122121;23;20089;-50
2021/07/08 04:34:46;;;;;;;20.27;18.20;;;13.60;99.90;;;;;;6127480;23;19995;-46
2021/07/08 04:37:13;;;;;;;21.15;18.95;;;13.70;99.90;;;;;;6130592;23;20017;-46
2021/07/08 04:39:39;;;;;;;21.75;19.30;;;13.80;99.90;;;;;;6095332;23;20492;-46
2021/07/08 04:42:10;;;;;;;20.77;17.67;;;13.90;99.90;;;;;;6094767;23;20025;-47
2021/07/08 04:44:37;;;;;;;19.88;17.98;;;14.00;99.90;;;;;;6120708;23;20049;-49
2021/07/08 04:47:07;;;;;;;20.33;18.33;;;14.10;99.90;;;;;;6121109;23;20025;-48
2021/07/08 04:49:37;;;;;;;19.42;17.55;;;14.20;99.90;;;;;;6094829;23;20072;-47
2021/07/08 04:52:11;;;;;;;20.45;18.33;;;14.30;99.90;;;;;;6120161;23;20026;-48
2021/07/08 04:54:37;;;;;;;20.88;18.92;;;14.30;99.90;;;;;;6131680;23;20026;-50
2021/07/08 04:57:08;;;;;;;25.58;22.98;;;14.40;99.90;;;;;;6121148;23;20022;-48
2021/07/08 04:59:34;;;;;;;25.55;23.33;;;14.50;99.90;;;;;;6121627;23;20044;-47
2021/07/08 05:02:03;;;;;;;28.05;25.48;;;14.60;99.90;;;;;;6131060;23;20036;-51
2021/07/08 05:04:29;;;;;;;27.88;25.17;;;14.70;99.90;;;;;;6120691;23;20032;-46
2021/07/08 05:06:58;;;;;;;28.25;25.58;;;14.90;99.90;;;;;;6130691;23;20018;-46
2021/07/08 05:09:24;;;;;;;25.17;22.77;;;15.00;99.90;;;;;;6120887;23;20024;-49
2021/07/08 05:11:53;;;;;;;22.75;20.52;;;15.20;99.90;;;;;;6120989;23;20375;-46
2021/07/08 05:14:20;;;;;;;18.23;16.42;;;15.60;99.90;;;;;;6120972;23;20045;-49
2021/07/08 05:16:47;;;;;;;19.00;17.27;;;16.10;99.90;;;;;;6120544;23;20017;-45
2021/07/08 05:19:13;;;;;;;19.15;16.73;;;16.60;99.90;;;;;;6120947;23;20013;-47
2021/07/08 05:21:49;;;;;;;18.42;16.35;;;17.00;99.90;;;;;;6130626;23;20018;-47
2021/07/08 05:24:23;;;;;;;17.15;15.45;;;17.30;99.90;;;;;;6096054;23;20018;-52
2021/07/08 05:26:53;;;;;;;16.33;14.77;;;17.50;99.90;;;;;;6120641;23;20036;-49
2021/07/08 05:29:26;;;;;;;15.75;14.13;;;17.80;99.90;;;;;;6120929;23;20081;-48
2021/07/08 05:31:55;;;;;;;16.25;14.55;;;17.80;99.90;;;;;;6094445;23;20017;-48
2021/07/08 05:34:23;;;;;;;16.65;15.10;;;18.00;99.90;;;;;;6131281;23;20177;-51
2021/07/08 05:36:50;;;;;;;14.60;13.15;;;18.20;99.90;;;;;;6130510;23;20014;-48
2021/07/08 05:39:16;;;;;;;17.42;14.43;;;18.60;99.90;;;;;;6120146;23;20037;-51
2021/07/08 05:41:43;;;;;;;14.57;13.25;;;18.70;99.90;;;;;;6118907;23;20518;-51
2021/07/08 05:44:09;;;;;;;18.17;13.38;;;18.90;99.90;;;;;;6130508;23;20021;-49
2021/07/08 05:46:36;;;;;;;14.55;13.25;;;18.90;99.90;;;;;;6120709;23;20515;-49
2021/07/08 05:49:02;;;;;;;14.73;13.15;;;19.20;99.90;;;;;;6120251;23;20013;-50
2021/07/08 05:51:30;;;;;;;14.45;13.05;;;19.30;99.90;;;;;;6120227;23;20017;-48
2021/07/08 05:53:59;;;;;;;14.48;13.07;;;19.10;99.90;;;;;;6129919;23;20029;-50
2021/07/08 05:56:27;;;;;;;15.55;13.73;;;18.80;99.90;;;;;;6120159;23;20029;-44
2021/07/08 05:58:53;;;;;;;15.20;13.60;;;18.80;99.90;;;;;;6119563;23;20076;-54
2021/07/08 06:01:23;;;;;;;16.10;14.35;;;18.70;99.90;;;;;;6120543;23;20022;-49
2021/07/08 06:03:49;;;;;;;15.85;14.25;;;18.70;99.90;;;;;;6093643;23;20080;-49
2021/07/08 06:06:19;;;;;;;15.73;14.10;;;18.90;99.90;;;;;;6120498;23;20029;-49
2021/07/08 06:08:46;;;;;;;14.23;12.93;;;19.40;99.90;;;;;;6119864;23;20029;-47
2021/07/08 06:11:18;;;;;;;18.08;16.25;;;19.70;99.90;;;;;;6095786;23;20022;-48
2021/07/08 06:13:45;;;;;;;15.15;13.65;;;20.20;99.90;;;;;;6130016;23;20070;-48
2021/07/08 06:16:12;;;;;;;14.00;12.60;;;20.50;99.90;;;;;;6129955;23;20018;-50
2021/07/08 06:18:38;;;;;;;14.43;12.07;;;20.50;99.90;;;;;;6129801;23;20022;-47
2021/07/08 06:21:07;;;;;;;12.68;11.55;;;20.70;99.90;;;;;;6129890;23;20093;-49
2021/07/08 06:23:33;;;;;;;12.82;11.68;;;20.80;99.90;;;;;;6120172;23;20025;-48
2021/07/08 06:26:02;;;;;;;13.52;12.13;;;20.80;99.90;;;;;;6093654;23;20033;-49
2021/07/08 06:28:28;;;;;;;15.05;13.02;;;21.10;99.90;;;;;;6119641;23;20022;-46
2021/07/08 06:30:57;;;;;;;12.93;11.73;;;21.10;99.90;;;;;;6093824;23;20494;-48
2021/07/08 06:33:24;;;;;;;21.15;18.75;;;21.30;99.90;;;;;;6119606;23;20108;-49
2021/07/08 06:35:50;;;;;;;39.45;35.50;;;21.50;99.90;;;;;;6119924;23;20018;-50
2021/07/08 06:38:19;;;;;;;18.88;17.13;;;21.80;99.90;;;;;;6120430;23;20026;-50
2021/07/08 06:40:45;;;;;;;16.20;14.60;;;22.00;99.90;;;;;;6120043;23;20403;-51
2021/07/08 06:43:54;;;;;;;14.68;12.27;;;22.00;99.90;;;;;;5044096;27;1265543;-50
2021/07/08 06:46:28;;;;;;;15.48;11.55;;;22.10;99.90;;;;;;5108459;28;20055;-50
2021/07/08 06:48:54;;;;;;;13.93;12.10;;;22.40;99.90;;;;;;5125675;28;20043;-50
2021/07/08 06:51:23;;;;;;;13.43;12.02;;;22.60;99.90;;;;;;5125794;28;20623;-48
2021/07/08 06:53:54;;;;;;;14.52;12.63;;;22.80;99.90;;;;;;5126101;28;20075;-47
2021/07/08 06:56:23;;;;;;;;;;;22.90;99.90;;;;;;5117097;28;20040;-50
2021/07/08 06:58:56;;;;;;;15.55;13.85;;;22.70;99.90;;;;;;5119745;28;20095;-53
2021/07/08 07:01:23;;;;;;;16.42;14.70;;;23.10;99.90;;;;;;5115450;27;20130;-54
2021/07/08 07:03:49;;;;;;;32.83;29.52;;;23.20;99.90;;;;;;5108873;28;20048;-55
2021/07/08 07:06:15;;;;;;;30.75;27.67;;;23.30;99.90;;;;;;5117526;28;20188;-53
2021/07/08 07:08:42;;;;;;;24.35;21.90;;;23.50;99.90;;;;;;5116743;28;20048;-57
2021/07/08 07:11:10;;;;;;;23.13;20.88;;;23.30;99.90;;;;;;5108897;28;20078;-54
2021/07/08 07:13:36;;;;;;;18.25;16.38;;;23.50;99.90;;;;;;5112285;28;20070;-56
2021/07/08 07:16:03;;;;;;;15.48;13.95;;;23.40;99.90;;;;;;5122713;28;20058;-53
2021/07/08 07:18:30;;;;;;;12.73;11.43;;;23.60;99.90;;;;;;5104403;28;20044;-56
2021/07/08 07:20:56;;;;;;;12.10;10.90;;;23.80;99.90;;;;;;5114834;28;20047;-56
2021/07/08 07:23:25;;;;;;;12.20;11.10;;;23.70;99.90;;;;;;5096960;28;20074;-56
2021/07/08 07:25:53;;;;;;;12.48;11.30;;;23.80;99.90;;;;;;5110580;28;20044;-57
2021/07/08 07:28:29;;;;;;;11.45;10.35;;;24.00;99.90;;;;;;5117290;28;20048;-57
2021/07/08 07:30:57;;;;;;;17.60;15.02;;;24.10;97.10;;;;;;5109419;28;20031;-57
2021/07/08 07:33:23;;;;;;;11.25;10.15;;;24.00;99.20;;;;;;5110894;28;20051;-58
2021/07/08 07:35:52;;;;;;;13.63;12.32;;;24.30;99.90;;;;;;5110482;27;20040;-57
2021/07/08 07:38:24;;;;;;;11.75;10.52;;;24.40;98.40;;;;;;5112181;28;20574;-58
2021/07/08 07:40:56;;;;;;;21.58;19.58;;;24.70;97.50;;;;;;5104047;28;20561;-57
2021/07/08 07:43:23;;;;;;;10.48;7.72;;;25.00;98.10;;;;;;5103625;28;20056;-58
2021/07/08 07:45:54;;;;;;;9.10;8.05;;;25.10;94.90;;;;;;5104169;28;20828;-58
2021/07/08 07:48:24;;;;;;;10.00;9.10;;;25.20;94.40;;;;;;5109366;28;20048;-58
2021/07/08 07:50:50;;;;;;;9.05;6.15;;;25.20;93.40;;;;;;5104633;28;20071;-59
2021/07/08 07:53:25;;;;;;;25.42;22.67;;;25.50;91.60;;;;;;5101401;28;20073;-58
2021/07/08 07:55:51;;;;;;;20.55;18.42;;;25.70;89.00;;;;;;5101579;28;20048;-59
2021/07/08 07:58:22;;;;;;;12.88;11.57;;;25.80;83.20;;;;;;5090502;28;20075;-59
2021/07/08 08:00:48;;;;;;;9.10;6.05;;;25.80;83.00;;;;;;5071441;28;20491;-58
2021/07/08 08:03:14;;;;;;;9.32;6.32;;;25.80;79.20;;;;;;5078435;28;20128;-58
2021/07/08 08:05:49;;;;;;;8.18;6.30;;;25.80;80.10;;;;;;5109493;28;20043;-58
2021/07/08 08:08:29;;;;;;;11.20;8.52;;;25.90;79.10;;;;;;5094860;28;20501;-59
2021/07/08 08:10:58;;;;;;;8.82;7.35;;;26.20;78.70;;;;;;5094742;28;20051;-59
2021/07/08 08:13:33;;;;;;;10.63;8.02;;;26.00;74.80;;;;;;5101457;28;20047;-59
2021/07/08 08:16:07;;;;;;;14.40;12.45;;;26.00;75.00;;;;;;5096196;28;20063;-61
2021/07/08 08:18:34;;;;;;;8.60;6.38;;;26.20;75.60;;;;;;5102575;28;20132;-58
2021/07/08 08:21:04;;;;;;;8.82;7.93;;;26.30;71.20;;;;;;5097951;28;20411;-61
2021/07/08 08:23:35;;;;;;;7.55;6.40;;;26.40;73.30;;;;;;5107589;28;20051;-59
2021/07/08 08:26:07;;;;;;;11.48;10.38;;;26.70;73.50;;;;;;5104118;28;20130;-59
2021/07/08 08:28:38;;;;;;;13.68;12.32;;;26.50;74.20;;;;;;5105343;28;20142;-60
2021/07/08 08:31:10;;;;;;;17.05;15.43;;;26.70;77.30;;;;;;5090959;28;20654;-61
2021/07/08 08:33:39;;;;;;;12.98;11.65;;;26.40;78.00;;;;;;5072667;28;20139;-58
2021/07/08 08:36:07;;;;;;;14.43;12.93;;;26.30;80.80;;;;;;5091089;28;20059;-59
2021/07/08 08:38:36;;;;;;;21.50;19.33;;;26.80;82.70;;;;;;5103386;28;20067;-60
2021/07/08 08:41:05;;;;;;;11.88;10.65;;;27.10;81.20;;;;;;5108017;28;20100;-60
2021/07/08 08:43:36;;;;;;;11.20;9.80;;;27.30;77.00;;;;;;5108762;28;20055;-60
2021/07/08 08:46:03;;;;;;;14.63;13.15;;;27.80;75.70;;;;;;5090179;28;20598;-59
2021/07/08 08:48:32;;;;;;;9.60;8.15;;;28.00;74.80;;;;;;5076367;28;20048;-60
2021/07/08 08:51:03;;;;;;;9.00;7.75;;;27.40;67.80;;;;;;5093403;28;20134;-60
2021/07/08 08:53:35;;;;;;;10.27;7.80;;;26.70;68.40;;;;;;5101054;28;20047;-60
2021/07/08 08:56:06;;;;;;;11.65;10.35;;;26.20;69.40;;;;;;5098019;28;20043;-58
2021/07/08 08:58:36;;;;;;;12.38;8.32;;;26.30;70.90;;;;;;5105950;28;20048;-59
2021/07/08 09:01:05;;;;;;;12.15;10.00;;;26.00;69.00;;;;;;5096583;28;20044;-60
2021/07/08 09:03:37;;;;;;;9.50;8.55;;;25.90;71.20;;;;;;5105934;28;20051;-60
2021/07/08 09:06:12;;;;;;;12.27;9.77;;;26.60;68.80;;;;;;5089598;28;20078;-62
2021/07/08 09:08:53;;;;;;;10.63;8.55;;;27.20;67.80;;;;;;5104472;28;20051;-60
2021/07/08 09:11:26;;;;;;;8.40;6.03;;;27.40;65.90;;;;;;5098175;28;20047;-62
2021/07/08 09:14:13;;;;;;;8.25;6.15;;;27.80;64.40;;;;;;5074204;28;20050;-59
2021/07/08 09:16:41;;;;;;;9.60;7.13;;;27.90;63.10;;;;;;5097147;28;20056;-62
2021/07/08 09:19:11;;;;;;;8.80;6.85;;;27.10;64.00;;;;;;5089186;28;20040;-61
2021/07/08 09:21:51;;;;;;;9.97;6.43;;;26.70;65.70;;;;;;5103055;28;20043;-54
2021/07/08 09:24:19;;;;;;;11.10;7.70;;;26.20;65.30;;;;;;5089346;28;20051;-51
2021/07/08 09:27:01;;;;;;;11.50;7.63;;;25.60;66.50;;;;;;5105498;28;20420;-57
2021/07/08 09:29:35;;;;;;;21.55;19.45;;;25.10;68.30;;;;;;5115043;28;20104;-53
2021/07/08 09:32:14;;;;;;;8.48;7.10;;;24.90;70.60;;;;;;5089081;28;20044;-55
2021/07/08 09:34:42;;;;;;;9.25;6.03;;;24.80;71.00;;;;;;5088244;28;20072;-56
2021/07/08 09:37:18;;;;;;;14.00;12.60;;;24.60;71.10;;;;;;5090940;28;20136;-55
2021/07/08 09:39:54;;;;;;;7.55;6.07;;;24.40;74.50;;;;;;5089979;28;20060;-54
2021/07/08 09:42:38;;;;;;;10.55;9.45;;;24.20;73.60;;;;;;5089671;28;20060;-55
2021/07/08 09:45:10;;;;;;;11.88;6.72;;;23.90;73.80;;;;;;5113018;28;20122;-56
2021/07/08 09:47:39;;;;;;;12.18;8.88;;;24.00;76.40;;;;;;5106871;28;20077;-56
2021/07/08 09:50:07;;;;;;;10.93;8.38;;;23.90;75.60;;;;;;5090668;28;20048;-52
2021/07/08 09:52:33;;;;;;;13.57;6.30;;;24.00;77.50;;;;;;5101777;28;20126;-55
2021/07/08 09:57:45;;;;;;;10.88;8.68;;;24.10;77.40;;;;;;5112758;28;20485;-55
2021/07/08 10:00:27;;;;;;;9.52;6.20;;;24.20;75.60;;;;;;5108265;28;20051;-54
2021/07/08 10:02:55;;;;;;;11.73;8.43;;;24.60;77.10;;;;;;5108139;28;20047;-56
2021/07/08 10:05:25;;;;;;;9.77;7.60;;;25.10;75.40;;;;;;5106772;28;20820;-56
2021/07/08 10:07:54;;;;;;;9.82;6.22;;;25.70;76.20;;;;;;5102338;28;20163;-54
2021/07/08 10:10:30;;;;;;;7.65;5.18;;;26.30;75.90;;;;;;5074415;28;20047;-53
2021/07/08 10:12:56;;;;;;;7.60;6.10;;;26.80;71.90;;;;;;5091433;28;20055;-54
2021/07/08 10:15:23;;;;;;;7.95;5.00;;;26.30;69.60;;;;;;5108251;28;20387;-55
2021/07/08 10:17:54;;;;;;;8.90;4.57;;;25.80;69.50;;;;;;5102004;28;20051;-56
2021/07/08 10:20:24;;;;;;;9.07;6.38;;;25.40;71.00;;;;;;5090856;28;20153;-55
2021/07/08 10:22:51;;;;;;;6.85;4.55;;;25.30;73.60;;;;;;5087670;28;20087;-55
2021/07/08 10:25:20;;;;;;;8.45;5.63;;;25.10;73.10;;;;;;5094133;28;20086;-51
2021/07/08 10:27:46;;;;;;;7.07;4.60;;;24.90;72.10;;;;;;5102268;28;20058;-55
2021/07/08 10:30:13;;;;;;;7.93;4.97;;;24.70;72.30;;;;;;5096440;28;20059;-50
2021/07/08 10:32:40;;;;;;;8.82;6.05;;;24.60;73.50;;;;;;5093635;28;20056;-53
2021/07/08 10:35:07;;;;;;;7.93;5.93;;;24.60;73.00;;;;;;5088353;28;20063;-53
2021/07/08 10:37:40;;;;;;;7.63;4.80;;;24.70;74.20;;;;;;5093595;28;20052;-55
2021/07/08 10:40:23;;;;;;;8.07;4.97;;;24.80;74.90;;;;;;5096706;28;20051;-51
2021/07/08 10:42:50;;;;;;;7.95;5.57;;;24.80;73.30;;;;;;5104561;28;20060;-52
2021/07/08 10:45:26;;;;;;;5.85;4.50;;;24.80;75.10;;;;;;5101851;28;20047;-53
2021/07/08 10:48:07;;;;;;;8.15;4.70;;;24.80;76.50;;;;;;5089891;28;20134;-54
2021/07/08 10:50:50;;;;;;;9.27;5.05;;;24.50;77.40;;;;;;5097292;28;20036;-54
2021/07/08 10:53:26;;;;;;;9.15;5.32;;;24.10;79.20;;;;;;5107144;28;20047;-54
2021/07/08 10:55:58;;;;;;;9.98;5.72;;;23.90;80.40;;;;;;5101735;28;20056;-54
2021/07/08 10:58:51;;;;;;;13.57;7.63;;;23.80;87.80;;;;;;5100887;28;20039;-56
2021/07/08 11:01:29;;;;;;;10.93;7.95;;;23.60;95.00;;;;;;5090796;28;20298;-55
2021/07/08 11:04:01;;;;;;;56.65;51.10;;;23.30;97.80;;;;;;5106070;28;20120;-51
2021/07/08 11:06:36;;;;;;;21.33;19.02;;;23.10;98.40;;;;;;5105735;28;20047;-50
2021/07/08 11:09:16;;;;;;;13.75;11.50;;;23.00;99.90;;;;;;5096656;28;20060;-55
2021/07/08 11:11:45;;;;;;;16.98;13.10;;;23.00;99.90;;;;;;5089013;28;20039;-60
2021/07/08 11:14:16;;;;;;;13.73;12.13;;;22.90;99.90;;;;;;5104123;28;20129;-58
2021/07/08 11:16:45;;;;;;;11.88;9.95;;;23.00;99.90;;;;;;5101146;28;20056;-60
2021/07/08 11:19:20;;;;;;;13.20;10.30;;;23.30;99.90;;;;;;5091773;28;20052;-59
2021/07/08 11:21:49;;;;;;;11.10;9.07;;;23.90;99.90;;;;;;5069649;28;20059;-60
2021/07/08 11:24:24;;;;;;;14.05;8.88;;;24.50;99.90;;;;;;5090924;28;20229;-61
2021/07/08 11:26:59;;;;;;;9.77;8.30;;;25.00;99.90;;;;;;5108312;28;20048;-61
2021/07/08 11:29:40;;;;;;;10.30;7.15;;;25.20;99.90;;;;;;5115938;28;20090;-62
2021/07/08 11:32:19;;;;;;;;;;;25.20;99.90;;;;;;5099870;28;20105;-63
2021/07/08 11:34:51;;;;;;;10.43;6.97;;;25.10;97.70;;;;;;5111963;28;19919;-63
2021/07/08 11:37:23;;;;;;;;;;;25.10;99.90;;;;;;5110839;28;20530;-61
2021/07/08 11:39:58;;;;;;;9.13;7.78;;;25.20;94.10;;;;;;5113477;28;19931;-62
2021/07/08 11:42:30;;;;;;;8.48;6.32;;;25.90;99.90;;;;;;5109312;28;20044;-65
2021/07/08 11:45:10;;;;;;;9.10;8.02;;;26.40;93.50;;;;;;5111633;28;20100;-64
2021/07/08 11:47:51;;;;;;;7.93;6.38;;;27.10;97.60;;;;;;5114510;28;20036;-62
2021/07/08 11:50:27;;;;;;;28.65;24.40;;;26.90;92.10;;;;;;5095325;28;20052;-64
2021/07/08 11:53:14;;;;;;;104.28;94.75;;;26.60;91.00;;;;;;5102740;28;20058;-63
2021/07/08 11:55:52;;;;;;;14.45;11.18;;;26.20;84.60;;;;;;5102737;27;20445;-65
2021/07/08 11:58:28;;;;;;;7.22;5.32;;;25.90;91.20;;;;;;5101382;28;20061;-63
2021/07/08 12:01:00;;;;;;;11.13;6.50;;;25.60;91.00;;;;;;5113430;28;20392;-64
2021/07/08 12:03:31;;;;;;;11.23;5.63;;;25.40;93.20;;;;;;5109568;28;20065;-65
2021/07/08 12:06:15;;;;;;;7.38;5.57;;;25.10;91.90;;;;;;5110008;28;20047;-63
2021/07/08 12:08:51;;;;;;;13.32;11.98;;;24.90;92.80;;;;;;5090446;28;20131;-62
2021/07/08 12:11:32;;;;;;;10.20;5.88;;;24.60;90.70;;;;;;5089931;28;20044;-64
2021/07/08 12:14:06;;;;;;;126.07;114.85;;;24.50;95.90;;;;;;5092199;28;20088;-62
2021/07/08 12:16:38;;;;;;;7.63;6.10;;;24.40;95.50;;;;;;5094737;28;20051;-63
2021/07/08 12:19:26;;;;;;;10.47;7.17;;;24.20;97.80;;;;;;5094488;28;20056;-60
2021/07/08 12:21:57;;;;;;;38.85;34.88;;;24.20;98.60;;;;;;5105788;28;20433;-63
2021/07/08 12:24:27;;;;;;;28.92;26.02;;;24.10;99.60;;;;;;5098943;28;20048;-63
2021/07/08 12:26:56;;;;;;;12.95;8.48;;;24.10;99.90;;;;;;5091281;28;20080;-61
2021/07/08 12:29:33;;;;;;;10.63;9.52;;;23.80;99.90;;;;;;5101248;28;20044;-63
2021/07/08 12:32:22;;;;;;;21.65;19.48;;;23.50;99.90;;;;;;5091541;28;20059;-61
2021/07/08 12:34:57;;;;;;;19.42;17.35;;;23.40;99.90;;;;;;5101336;28;20041;-61
2021/07/08 12:37:33;;;;;;;38.95;35.03;;;23.40;99.90;;;;;;5103383;28;20092;-62
2021/07/08 12:40:05;;;;;;;18.88;15.65;;;23.20;99.90;;;;;;5100515;28;20054;-62
2021/07/08 12:42:34;;;;;;;27.45;24.60;;;23.00;99.90;;;;;;5091779;28;20052;-60
2021/07/08 12:45:08;;;;;;;38.50;33.97;;;22.80;99.90;;;;;;5085980;28;20085;-59
2021/07/08 12:47:41;;;;;;;24.45;19.85;;;22.50;99.90;;;;;;5104722;27;20048;-58
2021/07/08 12:50:10;;;;;;;41.10;34.92;;;22.10;99.90;;;;;;5103844;28;20043;-54
2021/07/08 12:52:41;;;;;;;32.42;27.85;;;21.80;99.90;;;;;;5115546;27;20060;-57